< < Back
Terminal Aerodrome Forecast


Current Version              Previous Versions:   1  2  3  4  5  6  7  8  9  

Terminal Aerodrome Forecast

923
FTUS42 KCHS 211600 AAC
TAFCHS
TAF AMD
KCHS 211606Z 2116/2212 02008KT P6SM -RA SCT007 BKN040
     FM211900 03008KT P6SM VCSH SCT007 OVC010
     FM220000 04007KT 6SM BR VCSH OVC007
     FM220600 03006KT 3SM -RADZ BR OVC004=



Latest METAR

201
SAUS80 KWBC 211900
MTRCHS
METAR KCHS 211856Z 04009KT 10SM FEW020 OVC043 10/04 A3016 RMK AO2 SLP212
T01000044 $


USA.gov is the U.S. government's official web portal to all federal, state and local government web resources and services.